createdAt,value
2018-11-20T00:00:23.000Z,73.08
2018-11-20T00:03:30.040Z,73.05
2018-11-20T00:06:19.397Z,73.64
2018-11-20T00:09:06.547Z,73.44
2018-11-20T00:11:53.542Z,73.79
2018-11-20T00:14:45.194Z,73.76
2018-11-20T00:17:32.978Z,73.95
2018-11-20T00:20:27.975Z,73.70
2018-11-20T00:23:25.926Z,73.84
2018-11-20T00:26:23.290Z,73.75
2018-11-20T00:29:23.763Z,73.74
2018-11-20T00:32:12.172Z,74.02
2018-11-20T00:35:13.682Z,74.41
2018-11-20T00:38:06.122Z,74.69
2018-11-20T00:40:50.397Z,74.37
2018-11-20T00:43:33.464Z,74.33
2018-11-20T00:46:47.749Z,74.27
2018-11-20T00:49:54.123Z,74.25
2018-11-20T00:53:03.332Z,74.55
2018-11-20T00:56:20.386Z,74.20
2018-11-20T00:59:11.641Z,74.59
2018-11-20T01:01:59.335Z,74.68
2018-11-20T01:04:58.907Z,74.87
2018-11-20T01:07:46.460Z,74.89
2018-11-20T01:10:33.420Z,74.32
2018-11-20T01:13:21.181Z,74.57
2018-11-20T01:16:08.952Z,74.68
2018-11-20T01:18:57.757Z,74.74
2018-11-20T01:21:47.027Z,74.82
2018-11-20T01:24:54.213Z,74.26
2018-11-20T01:27:52.435Z,74.41
2018-11-20T01:30:56.193Z,74.62
2018-11-20T01:33:43.622Z,74.76
2018-11-20T01:36:33.435Z,74.96
2018-11-20T01:39:40.029Z,74.93
2018-11-20T01:42:27.742Z,75.05
2018-11-20T01:45:15.009Z,75.08
2018-11-20T01:48:12.977Z,74.90
2018-11-20T01:51:02.523Z,75.12
2018-11-20T01:54:09.070Z,74.94
2018-11-20T01:56:59.859Z,75.36
2018-11-20T01:59:53.826Z,75.21
2018-11-20T02:02:54.711Z,75.53
2018-11-20T02:05:47.901Z,75.22
2018-11-20T02:08:45.169Z,75.23
2018-11-20T02:11:37.214Z,75.44
2018-11-20T02:14:23.136Z,75.59
2018-11-20T02:17:16.379Z,75.30
2018-11-20T02:20:07.316Z,75.33
2018-11-20T02:23:01.603Z,75.35
2018-11-20T02:25:56.219Z,75.05
2018-11-20T02:28:49.789Z,75.14
2018-11-20T02:31:38.239Z,75.10
2018-11-20T02:34:21.127Z,74.85
2018-11-20T02:36:58.072Z,75.01
2018-11-20T02:39:45.711Z,74.81
2018-11-20T02:42:53.241Z,74.58
2018-11-20T02:45:43.007Z,74.86
2018-11-20T02:48:31.776Z,74.93
2018-11-20T02:51:18.668Z,74.78
2018-11-20T02:54:02.472Z,74.62
2018-11-20T02:56:45.122Z,74.83
2018-11-20T02:59:40.477Z,74.48
2018-11-20T03:02:29.316Z,74.60
2018-11-20T03:05:17.492Z,75.11
2018-11-20T03:08:06.001Z,74.92
2018-11-20T03:11:07.329Z,74.93
2018-11-20T03:13:54.268Z,75.05
2018-11-20T03:16:54.819Z,74.80
2018-11-20T03:19:42.036Z,74.67
2018-11-20T03:22:41.154Z,74.83
2018-11-20T03:26:02.160Z,74.97
2018-11-20T03:29:03.315Z,74.65
2018-11-20T03:31:42.753Z,74.41
2018-11-20T03:34:44.546Z,74.40
2018-11-20T03:37:44.987Z,74.36
2018-11-20T03:40:44.146Z,74.45
2018-11-20T03:43:41.716Z,74.41
2018-11-20T03:46:30.419Z,74.42
2018-11-20T03:49:19.574Z,74.52
2018-11-20T03:52:02.555Z,74.03
2018-11-20T03:54:53.312Z,74.36
2018-11-20T03:57:42.083Z,74.33
2018-11-20T04:00:40.284Z,74.48
2018-11-20T04:03:32.019Z,74.28
2018-11-20T04:06:23.297Z,74.76
2018-11-20T04:09:30.702Z,74.61
2018-11-20T04:12:19.567Z,74.67
2018-11-20T04:15:09.383Z,74.50
2018-11-20T04:18:00.835Z,74.53
2018-11-20T04:20:57.092Z,74.93
2018-11-20T04:23:46.335Z,74.80
2018-11-20T04:26:46.679Z,74.51
2018-11-20T04:29:35.818Z,74.52
2018-11-20T04:32:17.406Z,74.29
2018-11-20T04:35:00.934Z,74.19
2018-11-20T04:38:03.660Z,74.46
2018-11-20T04:41:03.629Z,74.81
2018-11-20T04:43:50.276Z,74.88
2018-11-20T04:46:31.765Z,74.75
2018-11-20T04:49:22.426Z,74.50
2018-11-20T04:52:25.091Z,74.20
2018-11-20T04:55:23.443Z,74.22
2018-11-20T04:58:25.420Z,74.47
2018-11-20T05:01:17.699Z,74.65
2018-11-20T05:04:07.202Z,74.53
2018-11-20T05:06:58.744Z,74.52
2018-11-20T05:09:50.800Z,74.47
2018-11-20T05:12:43.960Z,74.19
2018-11-20T05:15:31.736Z,73.96
2018-11-20T05:18:31.508Z,74.15
2018-11-20T05:21:18.358Z,74.35
2018-11-20T05:24:16.330Z,74.20
2018-11-20T05:27:12.769Z,74.78
2018-11-20T05:30:05.138Z,74.55
2018-11-20T05:32:52.740Z,74.53
2018-11-20T05:35:42.355Z,74.54
2018-11-20T05:38:40.133Z,74.24
2018-11-20T05:41:21.797Z,74.42
2018-11-20T05:44:21.981Z,74.93
2018-11-20T05:47:09.438Z,74.74
2018-11-20T05:50:06.506Z,75.11
2018-11-20T05:53:06.302Z,75.09
2018-11-20T05:55:57.119Z,74.79
2018-11-20T05:58:49.550Z,74.60
2018-11-20T06:01:41.067Z,75.05
2018-11-20T06:04:24.605Z,75.12
2018-11-20T06:07:20.005Z,75.17
2018-11-20T06:10:12.600Z,74.93
2018-11-20T06:12:54.147Z,74.77
2018-11-20T06:15:50.780Z,74.51
2018-11-20T06:18:57.445Z,74.93
2018-11-20T06:21:54.488Z,74.96
2018-11-20T06:24:50.553Z,75.10
2018-11-20T06:27:52.073Z,74.74
2018-11-20T06:30:39.510Z,75.28
2018-11-20T06:33:38.424Z,74.86
2018-11-20T06:36:27.774Z,75.03
2018-11-20T06:39:22.220Z,75.02
2018-11-20T06:42:18.366Z,75.10
2018-11-20T06:45:06.199Z,74.78
2018-11-20T06:47:56.368Z,75.04
2018-11-20T06:50:43.616Z,75.00
2018-11-20T06:53:31.338Z,75.07
2018-11-20T06:56:21.484Z,75.02
2018-11-20T06:59:09.119Z,74.62
2018-11-20T07:01:57.558Z,74.74
2018-11-20T07:04:48.606Z,74.38
2018-11-20T07:07:46.494Z,74.50
2018-11-20T07:10:39.835Z,74.47
2018-11-20T07:13:52.630Z,75.21
2018-11-20T07:16:56.227Z,74.76
2018-11-20T07:20:05.991Z,74.98
2018-11-20T07:22:54.119Z,75.12
2018-11-20T07:28:54.626Z,74.96
2018-11-20T07:31:42.165Z,75.01
2018-11-20T07:34:26.231Z,75.26
2018-11-20T07:37:15.167Z,74.83
2018-11-20T07:40:02.014Z,74.56
2018-11-20T07:42:51.802Z,74.52
2018-11-20T07:45:39.653Z,74.60
2018-11-20T07:48:27.473Z,74.37
2018-11-20T07:51:14.377Z,74.64
2018-11-20T07:54:02.955Z,74.51
2018-11-20T07:56:51.518Z,74.15
2018-11-20T07:59:53.500Z,74.52
2018-11-20T08:02:50.899Z,74.42
2018-11-20T08:05:33.592Z,74.02
2018-11-20T08:08:29.920Z,74.24
2018-11-20T08:11:20.215Z,73.88
2018-11-20T08:14:12.632Z,74.37
2018-11-20T08:17:00.918Z,74.10
2018-11-20T08:19:51.702Z,73.71
2018-11-20T08:23:00.986Z,73.73
2018-11-20T08:25:48.100Z,73.54
2018-11-20T08:28:49.206Z,73.59
2018-11-20T08:31:38.879Z,73.56
2018-11-20T08:34:25.026Z,73.44
2018-11-20T08:37:23.141Z,73.27
2018-11-20T08:40:16.356Z,72.86
2018-11-20T08:43:05.693Z,73.48
2018-11-20T08:45:52.569Z,73.13
2018-11-20T08:48:40.024Z,73.43
2018-11-20T08:51:30.734Z,73.53
2018-11-20T08:54:26.685Z,73.61
2018-11-20T08:57:15.890Z,73.28
2018-11-20T09:00:07.102Z,73.37
2018-11-20T09:03:04.749Z,73.42
2018-11-20T09:06:03.546Z,72.93
2018-11-20T09:08:50.924Z,73.26
2018-11-20T09:11:39.733Z,72.58
2018-11-20T09:14:43.678Z,72.83
2018-11-20T09:17:32.084Z,73.00
2018-11-20T09:20:19.845Z,73.56
2018-11-20T09:23:10.820Z,73.27
2018-11-20T09:26:03.725Z,73.20
2018-11-20T09:28:51.365Z,73.10
2018-11-20T09:31:48.083Z,73.02
2018-11-20T09:38:34.773Z,72.48
2018-11-20T09:41:39.255Z,72.76
2018-11-20T09:45:15.251Z,72.71
2018-11-20T09:48:33.632Z,72.22
2018-11-20T09:51:46.740Z,72.78
2018-11-20T09:54:47.395Z,72.69
2018-11-20T09:57:35.931Z,73.36
2018-11-20T10:00:35.755Z,73.13
2018-11-20T10:03:26.834Z,73.44
2018-11-20T10:06:29.820Z,73.73
2018-11-20T10:09:20.545Z,73.31
2018-11-20T10:12:08.893Z,73.45
2018-11-20T10:14:59.329Z,73.57
2018-11-20T10:18:02.000Z,72.94
2018-11-20T10:20:58.025Z,73.40
2018-11-20T10:23:53.929Z,73.42
2018-11-20T10:26:52.098Z,73.46
2018-11-20T10:29:45.092Z,73.59
2018-11-20T10:32:48.553Z,73.39
2018-11-20T10:35:35.609Z,73.66
2018-11-20T10:38:40.477Z,74.01
2018-11-20T10:41:31.703Z,73.97
2018-11-20T10:44:26.330Z,73.75
2018-11-20T10:47:17.100Z,74.19
2018-11-20T10:50:04.803Z,74.40
2018-11-20T10:52:51.541Z,74.57
2018-11-20T10:55:29.742Z,74.90
2018-11-20T10:58:16.726Z,75.02
2018-11-20T11:01:03.949Z,75.07
2018-11-20T11:03:51.120Z,75.05
2018-11-20T11:06:49.462Z,75.04
2018-11-20T11:09:40.542Z,75.61
2018-11-20T11:12:32.895Z,75.23
2018-11-20T11:15:24.048Z,75.31
2018-11-20T11:18:30.996Z,75.16
2018-11-20T11:21:21.807Z,75.09
2018-11-20T11:24:14.736Z,74.85
2018-11-20T11:27:15.212Z,75.19
2018-11-20T11:30:31.783Z,75.81
2018-11-20T11:33:31.010Z,75.76
2018-11-20T11:36:39.156Z,75.69
2018-11-20T11:39:31.353Z,75.78
2018-11-20T11:42:39.149Z,76.33
2018-11-20T11:45:31.373Z,76.30
2018-11-20T11:48:23.253Z,76.12
2018-11-20T11:51:23.730Z,76.16
2018-11-20T11:54:06.919Z,76.40
2018-11-20T11:56:55.299Z,76.85
2018-11-20T11:59:51.631Z,76.04
2018-11-20T12:05:39.409Z,76.17
2018-11-20T12:08:35.870Z,76.23
2018-11-20T12:11:27.883Z,76.91
2018-11-20T12:14:16.846Z,78.06
2018-11-20T12:17:13.294Z,79.06
2018-11-20T12:19:54.287Z,81.11
2018-11-20T12:22:47.298Z,82.30
2018-11-20T12:25:47.597Z,83.64
2018-11-20T12:28:41.372Z,84.94
2018-11-20T12:31:28.730Z,85.99
2018-11-20T12:34:35.558Z,88.16
2018-11-20T12:37:28.822Z,88.84
2018-11-20T12:40:35.799Z,89.50
2018-11-20T12:43:35.633Z,90.17
2018-11-20T12:57:14.953Z,91.99
2018-11-20T13:15:51.498Z,91.47
2018-11-20T13:21:04.718Z,91.60
2018-11-20T13:26:19.148Z,91.94
2018-11-20T13:29:07.913Z,91.94
2018-11-20T13:40:28.647Z,91.71
2018-11-20T13:43:03.797Z,91.58
2018-11-20T13:48:19.265Z,91.15
2018-11-20T13:53:32.710Z,90.85
2018-11-20T13:58:47.179Z,90.61
2018-11-20T14:04:11.894Z,90.57
2018-11-20T14:06:49.149Z,90.52
2018-11-20T14:12:03.925Z,91.08
2018-11-20T14:17:20.521Z,91.26
2018-11-20T14:20:02.014Z,91.19
2018-11-20T14:23:10.246Z,91.19
2018-11-20T14:26:12.865Z,91.30
2018-11-20T14:51:12.365Z,91.59
2018-11-20T14:54:07.036Z,91.57
2018-11-20T14:59:22.057Z,91.68
2018-11-20T15:05:20.294Z,92.04
2018-11-20T15:08:28.945Z,92.05
2018-11-20T15:11:27.561Z,91.77
2018-11-20T15:14:36.483Z,91.70
2018-11-20T15:28:21.053Z,91.33
2018-11-20T15:31:11.990Z,91.33
2018-11-20T15:33:58.017Z,91.20
2018-11-20T15:36:47.605Z,90.87
2018-11-20T15:58:04.509Z,90.65
2018-11-20T16:00:59.124Z,90.85
2018-11-20T16:03:42.481Z,90.76
2018-11-20T16:06:41.966Z,90.67
2018-11-20T16:12:09.101Z,90.35
2018-11-20T16:25:17.062Z,90.19
2018-11-20T16:27:50.347Z,90.18
2018-11-20T16:31:08.415Z,89.67
2018-11-20T16:34:10.279Z,89.79
2018-11-20T16:37:10.156Z,89.34
2018-11-20T16:42:15.507Z,88.97
2018-11-20T16:44:51.217Z,89.30
2018-11-20T16:47:58.958Z,89.44
2018-11-20T16:50:53.713Z,89.35
2018-11-20T16:58:48.440Z,90.08
2018-11-20T17:01:21.823Z,90.33
2018-11-20T17:03:55.135Z,90.37
2018-11-20T17:06:59.982Z,90.15
2018-11-20T17:09:52.151Z,90.11
2018-11-20T17:23:18.030Z,90.58
2018-11-20T17:31:20.546Z,90.23
2018-11-20T17:33:58.847Z,90.50
2018-11-20T17:39:34.587Z,90.83
2018-11-20T17:42:35.467Z,90.68
2018-11-20T17:45:28.971Z,90.68
2018-11-20T17:48:31.843Z,90.37
2018-11-20T17:51:04.600Z,90.45
2018-11-20T17:54:05.234Z,90.71
2018-11-20T17:56:52.686Z,90.68
2018-11-20T17:59:48.721Z,90.72
2018-11-20T18:03:04.084Z,91.10
2018-11-20T18:06:21.790Z,90.97
2018-11-20T18:09:24.199Z,90.64
2018-11-20T18:12:48.031Z,90.55
2018-11-20T18:15:53.302Z,90.57
2018-11-20T18:19:11.657Z,89.94
2018-11-20T18:22:31.912Z,89.87
2018-11-20T18:25:23.228Z,89.85
2018-11-20T18:28:11.583Z,89.53
2018-11-20T18:30:48.910Z,89.52
2018-11-20T18:33:35.794Z,89.85
2018-11-20T18:36:24.697Z,89.89
2018-11-20T18:39:35.188Z,89.99
2018-11-20T18:42:56.547Z,89.88
2018-11-20T18:46:02.967Z,89.90
2018-11-20T18:52:51.591Z,89.73
2018-11-20T18:55:43.793Z,89.94
2018-11-20T18:58:30.257Z,90.41
2018-11-20T19:01:28.782Z,90.49
2018-11-20T19:04:16.315Z,90.39
2018-11-20T19:07:06.291Z,90.32
2018-11-20T19:10:29.006Z,89.87
2018-11-20T19:13:25.026Z,89.34
2018-11-20T19:16:29.137Z,89.60
2018-11-20T19:19:43.614Z,89.71
2018-11-20T19:22:43.374Z,89.40
2018-11-20T19:25:36.804Z,89.26
2018-11-20T19:28:10.999Z,89.15
2018-11-20T19:31:02.570Z,89.53
2018-11-20T19:36:30.045Z,89.50
2018-11-20T19:41:58.596Z,89.30
2018-11-20T19:44:56.102Z,89.12
2018-11-20T19:47:44.685Z,89.29
2018-11-20T19:50:44.352Z,89.59
2018-11-20T19:53:31.687Z,89.48
2018-11-20T19:56:30.865Z,89.08
2018-11-20T19:59:27.146Z,89.12
2018-11-20T20:02:15.003Z,89.13
2018-11-20T20:05:18.780Z,89.63
2018-11-20T20:08:20.210Z,89.76
2018-11-20T20:11:08.053Z,90.05
2018-11-20T20:13:57.690Z,90.15
2018-11-20T20:16:58.266Z,89.97
2018-11-20T20:19:48.497Z,89.51
2018-11-20T20:22:38.914Z,89.01
2018-11-20T20:25:39.269Z,88.96
2018-11-20T20:28:39.245Z,89.21
2018-11-20T20:31:29.439Z,89.26
2018-11-20T20:34:17.734Z,89.24
2018-11-20T20:37:04.835Z,89.52
2018-11-20T20:40:11.317Z,89.86
2018-11-20T20:43:10.873Z,90.15
2018-11-20T20:46:16.583Z,90.33
2018-11-20T20:49:02.945Z,90.68
2018-11-20T20:52:01.285Z,90.55
2018-11-20T20:55:21.841Z,89.97
2018-11-20T20:58:11.881Z,90.26
2018-11-20T21:01:00.355Z,89.92
2018-11-20T21:03:57.483Z,90.17
2018-11-20T21:06:41.219Z,90.25
2018-11-20T21:09:41.827Z,90.48
2018-11-20T21:12:34.312Z,90.64
2018-11-20T21:15:21.197Z,90.43
2018-11-20T21:18:22.518Z,90.83
2018-11-20T21:21:22.710Z,90.57
2018-11-20T21:24:22.716Z,90.34
2018-11-20T21:27:17.634Z,90.08
2018-11-20T21:30:12.931Z,89.91
2018-11-20T21:33:05.359Z,89.87
2018-11-20T21:35:55.737Z,90.00
2018-11-20T21:38:55.909Z,89.71
2018-11-20T21:41:38.723Z,89.61
2018-11-20T21:44:38.891Z,90.11
2018-11-20T21:47:20.707Z,90.27
2018-11-20T21:50:09.391Z,89.97
2018-11-20T21:52:59.994Z,90.19
2018-11-20T21:56:01.261Z,90.41
2018-11-20T21:58:58.446Z,89.94
2018-11-20T22:01:56.451Z,89.82
2018-11-20T22:04:50.346Z,89.93
2018-11-20T22:07:47.783Z,89.64
2018-11-20T22:10:40.636Z,89.47
2018-11-20T22:13:34.376Z,89.72
2018-11-20T22:16:23.122Z,89.87
2018-11-20T22:19:27.438Z,89.84
2018-11-20T22:22:18.678Z,89.70
2018-11-20T22:25:13.149Z,89.90
2018-11-20T22:28:01.771Z,89.61
2018-11-20T22:30:53.421Z,89.98
2018-11-20T22:33:56.330Z,89.85
2018-11-20T22:36:42.740Z,89.66
2018-11-20T22:39:33.183Z,89.78
2018-11-20T22:42:27.914Z,89.69
2018-11-20T22:45:16.118Z,89.65
2018-11-20T22:48:02.799Z,90.09
2018-11-20T22:50:56.775Z,90.05
2018-11-20T22:53:47.831Z,90.38
2018-11-20T22:56:34.752Z,90.44
2018-11-20T22:59:21.071Z,90.79
2018-11-20T23:02:10.345Z,91.15
2018-11-20T23:05:11.857Z,90.92
2018-11-20T23:07:57.633Z,90.82
2018-11-20T23:10:30.644Z,90.72
2018-11-20T23:13:00.718Z,90.40
2018-11-20T23:15:31.674Z,89.79
2018-11-20T23:18:02.184Z,89.45
2018-11-20T23:20:33.777Z,89.00
2018-11-20T23:23:03.996Z,88.72
2018-11-20T23:25:36.306Z,89.16
2018-11-20T23:28:06.919Z,89.48
2018-11-20T23:30:41.804Z,90.06
2018-11-20T23:33:15.285Z,90.39
2018-11-20T23:35:46.794Z,90.34
2018-11-20T23:38:17.285Z,90.68
2018-11-20T23:40:46.994Z,90.63
2018-11-20T23:43:18.155Z,90.54
2018-11-20T23:45:48.165Z,90.34
2018-11-20T23:48:19.882Z,90.38
2018-11-20T23:50:50.396Z,90.46
2018-11-20T23:53:22.247Z,90.66
2018-11-20T23:55:52.345Z,90.79
2018-11-20T23:58:23.833Z,90.94
